Time;durP1;ratioP1;P1;durP2;ratioP2;P2;SDS_P1;SDS_P2;PMS_P1;PMS_P2;Temp;Humidity;BMP_temperature;BMP_pressure;BME280_temperature;BME280_humidity;BME280_pressure;Samples;Min_cycle;Max_cycle;Signal;HPM_P1;HPM_P2
2024/02/04 00:00:47;;;;;;;11.50;9.25;;;9.70;99.90;;;;;;5031000;28;20038;-82
2024/02/04 00:03:13;;;;;;;15.77;8.98;;;9.90;99.90;;;;;;4968302;28;20101;-82
2024/02/04 00:05:39;;;;;;;9.23;5.53;;;9.90;99.90;;;;;;4967592;28;20038;-82
2024/02/04 00:08:05;;;;;;;9.10;6.28;;;9.70;99.90;;;;;;5000743;28;20062;-82
2024/02/04 00:10:30;;;;;;;9.57;6.28;;;9.70;99.90;;;;;;5008049;28;20057;-82
2024/02/04 00:12:56;;;;;;;13.18;6.50;;;9.70;99.90;;;;;;4997216;28;20034;-82
2024/02/04 00:15:22;;;;;;;8.95;5.60;;;9.70;99.90;;;;;;5011746;28;20033;-82
2024/02/04 00:17:48;;;;;;;10.30;6.53;;;9.70;99.90;;;;;;5010353;28;20100;-82
2024/02/04 00:20:32;;;;;;;6.28;3.97;;;9.70;99.90;;;;;;4968100;28;20034;-82
2024/02/04 00:22:58;;;;;;;10.75;4.72;;;9.70;99.90;;;;;;4999216;28;20475;-82
2024/02/04 00:26:16;;;;;;;7.55;4.95;;;9.70;99.90;;;;;;4993050;28;20030;-82
2024/02/04 00:28:43;;;;;;;6.00;3.58;;;9.80;99.90;;;;;;5000847;28;20490;-82
2024/02/04 00:31:08;;;;;;;6.50;3.33;;;9.70;99.90;;;;;;4998941;28;20072;-82
2024/02/04 00:33:34;;;;;;;6.32;4.68;;;9.70;99.90;;;;;;4997069;28;20038;-82
2024/02/04 00:35:59;;;;;;;5.63;4.13;;;9.70;99.90;;;;;;4984411;28;20076;-82
2024/02/04 00:38:25;;;;;;;5.30;3.67;;;9.70;99.90;;;;;;4981533;28;20145;-82
2024/02/04 00:40:52;;;;;;;8.73;4.45;;;9.60;99.90;;;;;;4997357;28;20066;-82
2024/02/04 00:43:18;;;;;;;2.28;2.05;;;9.70;99.90;;;;;;4998877;28;20520;-82
2024/02/04 00:45:43;;;;;;;4.15;2.65;;;9.70;99.90;;;;;;4982515;28;20037;-81
2024/02/04 00:48:09;;;;;;;4.07;3.63;;;9.70;99.90;;;;;;5001377;28;20117;-82
2024/02/04 00:50:40;;;;;;;4.72;2.80;;;9.60;99.90;;;;;;5014935;28;20081;-82
2024/02/04 00:53:06;;;;;;;2.08;1.48;;;9.70;99.90;;;;;;5013273;28;20042;-82
2024/02/04 00:55:32;;;;;;;4.53;2.80;;;9.70;99.90;;;;;;5014204;28;20042;-82
2024/02/04 00:58:00;;;;;;;2.53;1.63;;;9.70;99.90;;;;;;4987528;28;20481;-82
2024/02/04 01:00:25;;;;;;;3.80;1.75;;;9.70;99.90;;;;;;5013479;28;20033;-82
2024/02/04 01:02:51;;;;;;;1.73;1.40;;;9.60;99.90;;;;;;5007592;28;20033;-82
2024/02/04 01:05:16;;;;;;;2.78;1.60;;;9.70;99.90;;;;;;4984550;28;20042;-82
2024/02/04 01:07:42;;;;;;;2.40;1.80;;;9.70;99.90;;;;;;4997615;28;20072;-82
2024/02/04 01:10:08;;;;;;;2.78;2.40;;;9.70;99.90;;;;;;4983870;28;20061;-82
2024/02/04 01:12:39;;;;;;;2.30;1.60;;;9.70;99.90;;;;;;4987448;28;20034;-82
2024/02/04 01:15:06;;;;;;;2.25;1.23;;;9.70;99.90;;;;;;4983560;28;20040;-82
2024/02/04 01:17:33;;;;;;;3.80;1.40;;;9.70;99.90;;;;;;4960055;28;20042;-82
2024/02/04 01:19:58;;;;;;;2.00;1.55;;;9.70;99.90;;;;;;4972591;28;20034;-82
2024/02/04 01:22:26;;;;;;;1.98;1.52;;;9.70;99.90;;;;;;4987504;28;20038;-82
2024/02/04 01:24:52;;;;;;;1.77;1.27;;;9.70;99.90;;;;;;4985777;28;20545;-82
2024/02/04 01:27:18;;;;;;;1.10;1.00;;;9.70;99.90;;;;;;4984386;28;20113;-82
2024/02/04 01:29:44;;;;;;;2.83;1.95;;;9.60;99.90;;;;;;5012085;28;20038;-82
2024/02/04 01:32:09;;;;;;;1.45;1.35;;;9.70;99.90;;;;;;5015466;28;20394;-82
2024/02/04 01:34:35;;;;;;;1.55;1.20;;;9.70;99.90;;;;;;4999129;28;20030;-82
2024/02/04 01:37:00;;;;;;;2.97;2.40;;;9.60;99.90;;;;;;4996952;28;21305;-81
2024/02/04 01:39:26;;;;;;;4.55;2.20;;;9.70;99.90;;;;;;4998877;28;20105;-81
2024/02/04 01:41:51;;;;;;;2.15;1.05;;;9.70;99.90;;;;;;4999536;28;20140;-81
2024/02/04 01:44:18;;;;;;;6.32;3.15;;;9.70;99.90;;;;;;4984266;28;20493;-82
2024/02/04 01:46:44;;;;;;;1.52;1.42;;;9.70;99.90;;;;;;5001029;28;20111;-81
2024/02/04 01:49:10;;;;;;;1.92;1.30;;;9.60;99.90;;;;;;4997716;28;20081;-82
2024/02/04 01:51:35;;;;;;;2.30;1.45;;;9.60;99.90;;;;;;4974015;28;20033;-82
2024/02/04 01:54:01;;;;;;;1.75;1.35;;;9.70;99.90;;;;;;5000583;28;20034;-82
2024/02/04 01:56:27;;;;;;;1.67;1.58;;;9.60;99.90;;;;;;4969445;28;20043;-82
2024/02/04 01:58:53;;;;;;;1.77;1.55;;;9.60;99.90;;;;;;4987209;28;20089;-82
2024/02/04 02:01:18;;;;;;;2.17;1.98;;;9.60;99.90;;;;;;4971653;28;20503;-82
2024/02/04 02:03:44;;;;;;;6.47;3.72;;;9.70;99.90;;;;;;4997565;28;20041;-82
2024/02/04 02:06:09;;;;;;;6.38;5.03;;;9.70;99.90;;;;;;5000367;28;20042;-82
2024/02/04 02:08:35;;;;;;;3.50;3.20;;;9.70;99.90;;;;;;5009744;28;20038;-82
2024/02/04 02:11:11;;;;;;;7.53;5.20;;;9.70;99.90;;;;;;4989102;28;20047;-82
2024/02/04 02:13:36;;;;;;;6.75;2.40;;;9.70;99.90;;;;;;4983162;28;20494;-82
2024/02/04 02:16:09;;;;;;;10.07;5.82;;;9.70;99.90;;;;;;5002986;28;20064;-82
2024/02/04 02:18:37;;;;;;;6.50;4.95;;;9.60;99.90;;;;;;4984081;28;20445;-82
2024/02/04 02:21:23;;;;;;;9.10;5.97;;;9.70;99.90;;;;;;5012277;28;20516;-82
2024/02/04 02:24:10;;;;;;;;;;;9.70;99.90;;;;;;4998852;28;20092;-82
2024/02/04 02:26:38;;;;;;;9.87;8.53;;;9.70;99.90;;;;;;4998098;28;20452;-82
2024/02/04 02:29:05;;;;;;;11.65;8.48;;;9.70;99.90;;;;;;4982864;28;20114;-82
2024/02/04 02:31:30;;;;;;;14.02;10.57;;;9.70;99.90;;;;;;4982079;28;20042;-82
2024/02/04 02:33:56;;;;;;;7.30;5.07;;;9.70;99.90;;;;;;4991541;28;20029;-82
2024/02/04 02:36:22;;;;;;;10.82;9.25;;;9.70;99.90;;;;;;5008911;28;20109;-82
2024/02/04 02:39:00;;;;;;;10.13;7.68;;;9.70;99.90;;;;;;4995814;28;20037;-82
2024/02/04 02:41:25;;;;;;;8.35;6.88;;;9.70;99.90;;;;;;5002899;28;20067;-82
2024/02/04 02:43:51;;;;;;;5.22;4.10;;;9.80;99.90;;;;;;4993745;28;20042;-82
2024/02/04 02:46:17;;;;;;;12.82;9.18;;;9.70;99.90;;;;;;5001094;28;20088;-82
2024/02/04 02:48:42;;;;;;;11.95;9.93;;;9.90;99.90;;;;;;4998408;28;20057;-82
2024/02/04 02:51:08;;;;;;;9.68;7.85;;;9.70;99.90;;;;;;4996305;28;20042;-82
2024/02/04 02:53:38;;;;;;;8.02;6.93;;;9.70;99.90;;;;;;5009951;28;20062;-82
2024/02/04 02:56:04;;;;;;;12.38;9.45;;;9.70;99.90;;;;;;4981054;28;20049;-82
2024/02/04 02:58:39;;;;;;;10.70;8.48;;;9.80;99.90;;;;;;4986924;28;20034;-82
2024/02/04 03:01:07;;;;;;;13.48;10.27;;;9.80;99.90;;;;;;4982582;28;20583;-82
2024/02/04 03:03:33;;;;;;;15.27;10.75;;;9.70;99.90;;;;;;4998514;28;20038;-82
2024/02/04 03:05:58;;;;;;;11.48;8.77;;;9.70;99.90;;;;;;4968268;28;20053;-82
2024/02/04 03:08:24;;;;;;;12.00;8.57;;;9.80;99.90;;;;;;4996662;28;20173;-82
2024/02/04 03:10:50;;;;;;;16.13;10.77;;;9.70;99.90;;;;;;4998988;28;20223;-82
2024/02/04 03:13:18;;;;;;;18.42;12.88;;;9.80;99.90;;;;;;4986222;28;20033;-82
2024/02/04 03:15:44;;;;;;;18.67;13.23;;;9.80;99.90;;;;;;4968139;28;20034;-82
2024/02/04 03:18:10;;;;;;;16.85;12.00;;;9.80;99.90;;;;;;4985940;28;20477;-82
2024/02/04 03:20:36;;;;;;;18.90;13.23;;;9.80;99.90;;;;;;4969953;28;20033;-83
2024/02/04 03:23:02;;;;;;;21.02;14.38;;;9.70;99.90;;;;;;4993673;28;20798;-82
2024/02/04 03:25:29;;;;;;;20.67;12.55;;;9.80;99.90;;;;;;4983845;28;20505;-82
2024/02/04 03:27:54;;;;;;;19.92;13.93;;;9.80;99.90;;;;;;4947952;28;20033;-82
2024/02/04 03:30:20;;;;;;;19.10;12.55;;;9.80;99.90;;;;;;4961396;28;20029;-82
2024/02/04 03:32:46;;;;;;;16.77;10.13;;;9.80;99.90;;;;;;4969060;28;20045;-82
2024/02/04 03:35:11;;;;;;;24.33;15.18;;;9.80;99.90;;;;;;4957392;28;20035;-82
2024/02/04 03:37:37;;;;;;;16.52;11.60;;;9.80;99.90;;;;;;4988685;28;20034;-82
2024/02/04 03:40:03;;;;;;;19.42;7.60;;;9.80;99.90;;;;;;4974531;28;20061;-82
2024/02/04 03:42:28;;;;;;;17.95;11.85;;;9.80;99.90;;;;;;4996171;28;20526;-82
2024/02/04 03:44:54;;;;;;;15.75;9.18;;;9.80;99.90;;;;;;4997029;28;20041;-82
2024/02/04 03:47:20;;;;;;;17.83;13.38;;;9.80;99.90;;;;;;5000127;28;20054;-82
2024/02/04 03:49:45;;;;;;;15.95;11.15;;;9.80;99.90;;;;;;4965059;28;20490;-82
2024/02/04 03:52:11;;;;;;;14.57;9.07;;;9.90;99.90;;;;;;4998391;28;20049;-82
2024/02/04 03:54:36;;;;;;;16.52;10.93;;;9.80;99.90;;;;;;4995856;28;20410;-83
2024/02/04 03:57:02;;;;;;;22.60;13.57;;;9.80;99.90;;;;;;4970249;28;20048;-82
2024/02/04 03:59:28;;;;;;;17.10;11.07;;;9.80;99.90;;;;;;4980192;28;20053;-82
2024/02/04 04:01:54;;;;;;;14.45;9.35;;;9.90;99.90;;;;;;4984745;28;20069;-82
2024/02/04 04:04:20;;;;;;;12.35;7.72;;;9.80;99.90;;;;;;5011644;28;20026;-82
2024/02/04 04:06:46;;;;;;;23.15;15.05;;;9.80;99.90;;;;;;4992657;28;20046;-82
2024/02/04 04:09:12;;;;;;;19.60;12.98;;;9.90;99.90;;;;;;4985890;28;20038;-82
2024/02/04 04:11:37;;;;;;;16.85;10.60;;;9.90;99.90;;;;;;4984345;28;20030;-82
2024/02/04 04:14:03;;;;;;;14.10;9.18;;;9.90;99.90;;;;;;4990252;28;20037;-82
2024/02/04 04:16:28;;;;;;;20.02;12.13;;;9.80;99.90;;;;;;4999965;28;20461;-82
2024/02/04 04:18:54;;;;;;;16.83;12.70;;;9.80;99.90;;;;;;4962537;28;20042;-82
2024/02/04 04:21:20;;;;;;;17.20;10.52;;;9.90;99.90;;;;;;4988110;28;20486;-82
2024/02/04 04:23:45;;;;;;;11.50;6.75;;;9.90;99.90;;;;;;4987864;28;20030;-82
2024/02/04 04:26:11;;;;;;;15.65;10.32;;;9.90;99.90;;;;;;4972340;28;20038;-82
2024/02/04 04:28:36;;;;;;;16.05;10.18;;;9.90;99.90;;;;;;4989331;28;20049;-82
2024/02/04 04:31:02;;;;;;;14.65;8.45;;;9.90;99.90;;;;;;4987206;28;20041;-82
2024/02/04 04:33:28;;;;;;;13.70;8.45;;;9.90;99.90;;;;;;5011989;28;20045;-82
2024/02/04 04:35:56;;;;;;;22.02;16.23;;;9.90;99.90;;;;;;4970438;28;20134;-82
2024/02/04 04:38:21;;;;;;;19.10;11.07;;;9.90;99.90;;;;;;4986664;28;20114;-82
2024/02/04 04:40:47;;;;;;;22.38;13.15;;;9.90;99.90;;;;;;4984965;28;20030;-81
2024/02/04 04:43:12;;;;;;;49.20;31.33;;;9.90;99.90;;;;;;5001824;28;20041;-81
2024/02/04 04:45:39;;;;;;;30.67;21.08;;;10.00;99.90;;;;;;5000185;28;20033;-82
2024/02/04 04:48:07;;;;;;;52.22;38.10;;;9.90;99.90;;;;;;4998788;28;20042;-82
2024/02/04 04:50:33;;;;;;;51.50;35.55;;;9.80;99.90;;;;;;4981056;28;20550;-82
2024/02/04 04:52:58;;;;;;;50.05;35.85;;;9.90;99.90;;;;;;4965715;28;20030;-82
2024/02/04 04:55:24;;;;;;;55.42;42.88;;;9.80;99.90;;;;;;4981703;28;20180;-81
2024/02/04 04:57:51;;;;;;;41.10;22.05;;;9.80;99.90;;;;;;4970861;28;20026;-82
2024/02/04 05:00:17;;;;;;;41.50;26.52;;;9.80;99.90;;;;;;4967270;28;20482;-81
2024/02/04 05:02:44;;;;;;;42.22;27.92;;;9.90;99.90;;;;;;4947500;28;20043;-82
2024/02/04 05:05:13;;;;;;;51.10;31.38;;;9.80;99.90;;;;;;4964690;28;20073;-82
2024/02/04 05:07:39;;;;;;;38.38;24.55;;;9.80;99.90;;;;;;4960756;28;20524;-82
2024/02/04 05:10:05;;;;;;;37.33;23.05;;;9.80;99.90;;;;;;5002178;28;20042;-82
2024/02/04 05:13:00;;;;;;;51.10;33.60;;;9.90;99.90;;;;;;4980444;28;20066;-82
2024/02/04 05:15:25;;;;;;;49.67;33.97;;;9.90;99.90;;;;;;4988128;28;20034;-82
2024/02/04 05:17:54;;;;;;;49.88;31.42;;;9.80;99.90;;;;;;4982771;28;20533;-82
2024/02/04 05:20:19;;;;;;;33.88;22.70;;;9.90;99.90;;;;;;4985915;28;20038;-82
2024/02/04 05:22:45;;;;;;;44.17;26.73;;;9.90;99.90;;;;;;4987191;28;20034;-82
2024/02/04 05:25:11;;;;;;;39.92;26.77;;;9.80;99.90;;;;;;4972445;28;20536;-82
2024/02/04 05:27:44;;;;;;;38.05;26.38;;;9.80;99.90;;;;;;4985398;28;20072;-82
2024/02/04 05:30:10;;;;;;;27.13;16.77;;;9.70;99.90;;;;;;4983512;28;20045;-82
2024/02/04 05:32:44;;;;;;;33.50;19.02;;;9.80;99.90;;;;;;4987908;28;20560;-82
2024/02/04 05:35:10;;;;;;;27.92;17.15;;;9.80;99.90;;;;;;4999263;28;20037;-82
2024/02/04 05:37:36;;;;;;;32.33;15.30;;;9.80;99.90;;;;;;4971922;28;20508;-82
2024/02/04 05:40:03;;;;;;;30.95;19.45;;;9.80;99.90;;;;;;4985763;28;20044;-81
2024/02/04 05:42:31;;;;;;;30.90;18.08;;;9.80;99.90;;;;;;4966332;28;20038;-81
2024/02/04 05:44:57;;;;;;;34.30;21.95;;;9.80;99.90;;;;;;4980269;28;20052;-81
2024/02/04 05:47:23;;;;;;;34.40;22.77;;;9.80;99.90;;;;;;4985710;28;20084;-82
2024/02/04 05:49:49;;;;;;;27.65;15.88;;;9.90;99.90;;;;;;4983180;28;20542;-82
2024/02/04 05:52:15;;;;;;;20.95;11.80;;;9.70;99.90;;;;;;4960976;28;20447;-82
2024/02/04 05:54:40;;;;;;;28.88;19.23;;;9.80;99.90;;;;;;4963854;28;20065;-83
2024/02/04 05:57:06;;;;;;;27.30;16.80;;;9.80;99.90;;;;;;4998972;28;20109;-82
2024/02/04 05:59:35;;;;;;;30.33;20.48;;;9.80;99.90;;;;;;4985728;28;20040;-82
2024/02/04 06:02:00;;;;;;;34.33;22.13;;;9.80;99.90;;;;;;4961156;28;20034;-82
2024/02/04 06:04:26;;;;;;;27.95;16.77;;;9.80;99.90;;;;;;4997748;28;20034;-82
2024/02/04 06:06:52;;;;;;;19.02;12.13;;;9.80;99.90;;;;;;5001565;28;20030;-82
2024/02/04 06:09:17;;;;;;;28.13;14.65;;;9.80;99.90;;;;;;4977669;28;20437;-82
2024/02/04 06:11:46;;;;;;;37.88;22.20;;;9.80;99.90;;;;;;4984154;28;20048;-82
2024/02/04 06:14:12;;;;;;;30.75;13.93;;;9.90;99.90;;;;;;4975347;28;20038;-82
2024/02/04 06:16:38;;;;;;;25.65;12.60;;;9.80;99.90;;;;;;5001152;28;20570;-83
2024/02/04 06:19:04;;;;;;;33.10;20.15;;;9.80;99.90;;;;;;4986285;28;20041;-82
2024/02/04 06:21:30;;;;;;;27.33;16.35;;;9.80;99.90;;;;;;4985779;28;20028;-82
2024/02/04 06:23:55;;;;;;;22.00;13.05;;;9.80;99.90;;;;;;4987848;28;20030;-82
2024/02/04 06:26:21;;;;;;;23.10;12.63;;;9.80;99.90;;;;;;4992236;28;20119;-82
2024/02/04 06:28:56;;;;;;;28.33;14.85;;;9.80;99.90;;;;;;4997546;28;20029;-82
2024/02/04 06:31:22;;;;;;;28.92;15.73;;;9.90;99.90;;;;;;5014986;28;20151;-82
2024/02/04 06:33:47;;;;;;;22.45;11.73;;;9.80;99.90;;;;;;4986371;28;20026;-82
2024/02/04 06:36:15;;;;;;;25.98;14.52;;;9.80;99.90;;;;;;4987887;28;20042;-82
2024/02/04 06:38:41;;;;;;;36.92;16.30;;;9.80;99.90;;;;;;5001862;28;20307;-83
2024/02/04 06:41:07;;;;;;;30.45;18.10;;;9.80;99.90;;;;;;4986155;28;20156;-82
2024/02/04 06:43:32;;;;;;;28.60;15.93;;;9.80;99.90;;;;;;4999474;28;20641;-82
2024/02/04 06:45:58;;;;;;;21.65;12.07;;;9.80;99.90;;;;;;5000489;28;20117;-82
2024/02/04 06:48:32;;;;;;;25.20;15.75;;;9.90;99.90;;;;;;4983918;28;20057;-82
2024/02/04 06:50:58;;;;;;;28.98;15.85;;;9.80;99.90;;;;;;4988516;28;20069;-81
2024/02/04 06:53:25;;;;;;;29.70;14.35;;;9.80;99.90;;;;;;4995682;28;20128;-81
2024/02/04 06:55:51;;;;;;;30.75;12.00;;;9.80;99.90;;;;;;4986401;28;20115;-81
2024/02/04 06:58:17;;;;;;;18.05;10.73;;;9.80;99.90;;;;;;4971200;28;20441;-82
2024/02/04 07:00:42;;;;;;;16.85;9.48;;;9.80;99.90;;;;;;4972374;28;20048;-81
2024/02/04 07:03:08;;;;;;;21.58;11.70;;;9.90;99.90;;;;;;4991422;28;20782;-81
2024/02/04 07:05:33;;;;;;;22.13;10.55;;;9.80;99.90;;;;;;4984132;28;20065;-81
2024/02/04 07:07:59;;;;;;;26.17;15.45;;;9.80;99.90;;;;;;4997851;28;20149;-81
2024/02/04 07:10:25;;;;;;;25.10;14.70;;;9.80;99.90;;;;;;4998893;28;20030;-82
2024/02/04 07:12:53;;;;;;;23.00;10.05;;;9.80;99.90;;;;;;4983301;28;20700;-81
2024/02/04 07:15:22;;;;;;;22.05;13.07;;;9.80;99.90;;;;;;4984777;28;20049;-81
2024/02/04 07:17:47;;;;;;;22.15;9.43;;;9.80;99.90;;;;;;4957871;28;20050;-81
2024/02/04 07:20:28;;;;;;;22.98;12.90;;;9.80;99.90;;;;;;4984706;28;20087;-81
2024/02/04 07:22:53;;;;;;;18.13;10.02;;;9.80;99.90;;;;;;4986528;28;20034;-82
2024/02/04 07:25:20;;;;;;;16.73;8.40;;;9.80;99.90;;;;;;4998705;28;20746;-82
2024/02/04 07:27:45;;;;;;;15.85;8.15;;;9.80;99.90;;;;;;5000050;28;20065;-82
2024/02/04 07:30:11;;;;;;;25.67;14.43;;;9.70;99.90;;;;;;4997844;28;20034;-82
2024/02/04 07:32:37;;;;;;;13.45;8.50;;;9.80;99.90;;;;;;4978689;28;20248;-82
2024/02/04 07:35:03;;;;;;;19.95;11.65;;;9.80;99.90;;;;;;4984570;28;20029;-82
2024/02/04 07:37:29;;;;;;;20.67;12.95;;;9.80;99.90;;;;;;4979170;28;20022;-82
2024/02/04 07:39:54;;;;;;;14.35;8.85;;;9.80;99.90;;;;;;4981964;28;20061;-82
2024/02/04 07:42:20;;;;;;;12.10;6.55;;;9.80;99.90;;;;;;4984007;28;20053;-82
2024/02/04 07:44:45;;;;;;;15.48;9.15;;;9.80;99.90;;;;;;5000530;28;20510;-82
2024/02/04 07:47:11;;;;;;;20.75;11.30;;;9.90;99.90;;;;;;4996008;28;20113;-81
2024/02/04 07:49:37;;;;;;;13.77;8.13;;;9.80;99.90;;;;;;4968974;28;20101;-81
2024/02/04 07:52:03;;;;;;;15.40;9.70;;;9.90;99.90;;;;;;4999526;28;20030;-82
2024/02/04 07:54:29;;;;;;;13.95;9.10;;;9.90;99.90;;;;;;4981145;28;20033;-82
2024/02/04 07:56:55;;;;;;;10.82;5.95;;;9.80;99.90;;;;;;5001432;28;20034;-81
2024/02/04 07:59:20;;;;;;;12.15;5.15;;;9.80;99.90;;;;;;5000994;28;20026;-81
2024/02/04 08:01:48;;;;;;;15.88;9.25;;;9.80;99.90;;;;;;4998744;28;20347;-81
2024/02/04 08:04:15;;;;;;;13.75;9.20;;;9.90;99.90;;;;;;4995210;28;20896;-81
2024/02/04 08:06:40;;;;;;;17.83;11.15;;;9.90;99.90;;;;;;4995469;28;20030;-81
2024/02/04 08:09:06;;;;;;;18.48;11.88;;;9.90;99.90;;;;;;4984833;28;20862;-82
2024/02/04 08:11:32;;;;;;;14.57;9.80;;;9.90;99.90;;;;;;4999290;28;20048;-81
2024/02/04 08:13:58;;;;;;;15.30;7.00;;;9.90;99.90;;;;;;5009439;28;20092;-82
2024/02/04 08:16:26;;;;;;;8.23;6.43;;;9.90;99.90;;;;;;4999261;28;20048;-82
2024/02/04 08:18:51;;;;;;;11.48;6.25;;;9.90;99.90;;;;;;4982456;28;20043;-81
2024/02/04 08:21:17;;;;;;;9.68;4.80;;;9.90;99.90;;;;;;4996919;28;20042;-81
2024/02/04 08:23:44;;;;;;;8.60;5.30;;;9.80;99.90;;;;;;4994708;28;20041;-82
2024/02/04 08:26:10;;;;;;;8.88;5.80;;;9.90;99.90;;;;;;4965904;28;20100;-82
2024/02/04 08:28:36;;;;;;;8.93;6.00;;;9.80;99.90;;;;;;5010057;28;20034;-82
2024/02/04 08:31:02;;;;;;;10.02;5.75;;;9.90;99.90;;;;;;4983507;28;20156;-81
2024/02/04 08:33:28;;;;;;;8.65;5.55;;;9.80;99.90;;;;;;5011559;28;20133;-81
2024/02/04 08:35:53;;;;;;;6.80;5.03;;;9.80;99.90;;;;;;4981270;28;20038;-82
2024/02/04 08:38:19;;;;;;;7.20;4.75;;;9.90;99.90;;;;;;4993788;28;20144;-81
2024/02/04 08:40:44;;;;;;;7.20;4.80;;;9.90;99.90;;;;;;4988912;28;20576;-81
2024/02/04 08:43:10;;;;;;;12.25;5.55;;;9.80;99.90;;;;;;4993096;23;20042;-81
2024/02/04 08:45:38;;;;;;;8.95;5.47;;;9.90;99.90;;;;;;4959525;28;20068;-81
2024/02/04 08:48:04;;;;;;;5.70;4.15;;;9.80;99.90;;;;;;4970544;28;20037;-81
2024/02/04 08:50:30;;;;;;;5.53;3.67;;;9.80;99.90;;;;;;4960454;28;20038;-81
2024/02/04 08:52:56;;;;;;;6.43;4.85;;;9.80;99.90;;;;;;4971293;28;20099;-81
2024/02/04 08:55:22;;;;;;;6.13;3.70;;;9.80;99.90;;;;;;4954459;28;20038;-81
2024/02/04 08:57:53;;;;;;;5.28;3.28;;;9.80;99.90;;;;;;4948311;28;20080;-82
2024/02/04 09:00:22;;;;;;;2.75;2.22;;;9.80;99.90;;;;;;4987459;28;20111;-82
2024/02/04 09:02:47;;;;;;;3.53;2.92;;;9.80;99.90;;;;;;4947062;28;20035;-81
2024/02/04 09:05:13;;;;;;;2.97;2.28;;;9.80;99.90;;;;;;4954143;28;20037;-82
2024/02/04 09:07:41;;;;;;;7.82;4.78;;;9.80;99.90;;;;;;4976920;28;20030;-81
2024/02/04 09:10:24;;;;;;;6.75;4.90;;;9.80;99.90;;;;;;4960026;28;20034;-81
2024/02/04 09:12:50;;;;;;;5.63;2.67;;;9.80;99.90;;;;;;4969495;28;20570;-81
2024/02/04 09:15:45;;;;;;;8.98;6.28;;;9.80;99.90;;;;;;4961449;28;20030;-81
2024/02/04 09:18:10;;;;;;;15.07;11.05;;;9.80;99.90;;;;;;4985646;28;20153;-81
2024/02/04 09:20:36;;;;;;;17.50;11.77;;;9.80;99.90;;;;;;4958228;28;20053;-81
2024/02/04 09:23:10;;;;;;;6.95;4.30;;;9.80;99.90;;;;;;4966145;28;21177;-81
2024/02/04 09:25:36;;;;;;;12.02;7.97;;;9.80;99.90;;;;;;4966468;28;20541;-81
2024/02/04 09:28:01;;;;;;;8.90;5.50;;;9.90;99.90;;;;;;4949438;28;20122;-81
2024/02/04 09:30:27;;;;;;;11.85;7.47;;;9.90;99.90;;;;;;4975931;28;20191;-81
2024/02/04 09:32:53;;;;;;;16.08;10.65;;;9.90;99.90;;;;;;4973321;28;20081;-81
2024/02/04 09:35:18;;;;;;;9.65;5.80;;;9.90;99.90;;;;;;4970594;28;20030;-81
2024/02/04 09:37:44;;;;;;;13.18;9.27;;;9.90;99.90;;;;;;4963517;28;20044;-81
2024/02/04 09:40:16;;;;;;;9.93;7.65;;;9.90;99.90;;;;;;4949068;28;20045;-82
2024/02/04 09:43:20;;;;;;;9.27;6.68;;;10.00;99.90;;;;;;4948247;28;20034;-82
2024/02/04 09:45:46;;;;;;;10.88;5.57;;;10.00;99.90;;;;;;4951285;28;20038;-82
2024/02/04 09:48:12;;;;;;;15.40;7.38;;;10.00;99.90;;;;;;4989506;28;20513;-82
2024/02/04 09:50:38;;;;;;;10.07;6.82;;;10.00;99.90;;;;;;4970743;28;20037;-82
2024/02/04 09:53:07;;;;;;;14.70;8.90;;;10.00;99.90;;;;;;4972080;28;20040;-82
2024/02/04 09:55:33;;;;;;;8.55;5.05;;;10.10;99.90;;;;;;4975021;28;20034;-82
2024/02/04 09:57:59;;;;;;;9.57;6.47;;;10.00;99.90;;;;;;4966739;28;20041;-81
2024/02/04 10:00:24;;;;;;;10.35;5.82;;;10.00;99.90;;;;;;4974014;28;20058;-82
2024/02/04 10:02:50;;;;;;;13.10;7.90;;;10.10;99.90;;;;;;4948324;28;20498;-82
2024/02/04 10:05:15;;;;;;;15.32;10.38;;;10.20;99.90;;;;;;4959105;28;20043;-81
2024/02/04 10:07:41;;;;;;;14.38;9.00;;;10.10;99.90;;;;;;4988627;28;20022;-82
2024/02/04 10:10:07;;;;;;;16.92;11.48;;;10.10;99.90;;;;;;4975419;28;20493;-82
2024/02/04 10:12:35;;;;;;;13.63;7.82;;;10.10;99.90;;;;;;4969040;28;20088;-81
2024/02/04 10:15:02;;;;;;;12.80;8.05;;;10.00;99.90;;;;;;4938539;28;20589;-81
2024/02/04 10:17:27;;;;;;;13.95;7.53;;;10.10;99.90;;;;;;4949162;28;20058;-81
2024/02/04 10:19:53;;;;;;;15.07;9.02;;;10.10;99.90;;;;;;4975890;28;20136;-82
2024/02/04 10:22:26;;;;;;;12.43;7.20;;;10.20;99.90;;;;;;4962622;28;20122;-81
2024/02/04 10:25:25;;;;;;;14.43;9.35;;;10.10;99.90;;;;;;4987989;28;20397;-81
2024/02/04 10:28:00;;;;;;;13.50;8.70;;;10.10;99.90;;;;;;4968137;28;20566;-81
2024/02/04 10:30:26;;;;;;;8.60;5.53;;;10.20;99.90;;;;;;4963298;28;20056;-81
2024/02/04 10:33:19;;;;;;;7.80;5.90;;;10.10;99.90;;;;;;4964354;28;20717;-81
2024/02/04 10:35:44;;;;;;;11.02;7.18;;;10.20;99.90;;;;;;4974407;28;20030;-81
2024/02/04 10:38:20;;;;;;;10.23;7.32;;;10.20;99.90;;;;;;4986820;28;20089;-81
2024/02/04 10:40:45;;;;;;;15.60;10.85;;;10.30;99.90;;;;;;4993332;28;20270;-81
2024/02/04 10:43:16;;;;;;;13.50;9.10;;;10.40;99.90;;;;;;4964158;28;20505;-81
2024/02/04 10:45:43;;;;;;;11.88;7.88;;;10.40;99.90;;;;;;4973842;28;20489;-81
2024/02/04 10:48:09;;;;;;;12.10;9.10;;;10.50;99.90;;;;;;4987783;28;20066;-81
2024/02/04 10:50:35;;;;;;;13.70;9.20;;;10.40;99.90;;;;;;4951375;28;20062;-81
2024/02/04 10:53:07;;;;;;;8.98;5.65;;;10.50;99.90;;;;;;4964775;28;20044;-81
2024/02/04 10:55:32;;;;;;;11.90;7.45;;;10.50;99.90;;;;;;4964080;28;20034;-81
2024/02/04 10:58:01;;;;;;;7.28;5.32;;;10.50;99.90;;;;;;4969982;28;20034;-81
2024/02/04 11:00:30;;;;;;;12.40;7.05;;;10.50;99.90;;;;;;4987740;28;20039;-81
2024/02/04 11:02:56;;;;;;;6.78;3.45;;;10.60;99.90;;;;;;4977855;28;20390;-81
2024/02/04 11:05:21;;;;;;;11.23;5.07;;;10.60;99.90;;;;;;4962250;28;20030;-81
2024/02/04 11:07:51;;;;;;;10.73;4.97;;;10.60;99.90;;;;;;4964538;28;20584;-81
2024/02/04 11:10:17;;;;;;;11.63;7.07;;;10.80;99.90;;;;;;4975455;28;20042;-81
2024/02/04 11:12:45;;;;;;;9.88;4.93;;;10.80;99.90;;;;;;4980345;28;20065;-81
2024/02/04 11:15:11;;;;;;;12.07;4.47;;;10.80;99.90;;;;;;4974445;28;20033;-81
2024/02/04 11:18:04;;;;;;;7.90;5.38;;;10.90;99.90;;;;;;4962833;28;20038;-81
2024/02/04 11:20:42;;;;;;;9.45;4.63;;;10.90;99.90;;;;;;4988243;28;20084;-81
2024/02/04 11:23:23;;;;;;;9.20;5.75;;;10.90;99.90;;;;;;4991979;28;20566;-81
2024/02/04 11:25:53;;;;;;;5.90;4.38;;;10.90;99.90;;;;;;4988009;28;20118;-82
2024/02/04 11:28:22;;;;;;;5.20;3.88;;;10.90;99.90;;;;;;4969415;28;20446;-81
2024/02/04 11:30:48;;;;;;;7.78;4.25;;;10.80;99.90;;;;;;4955985;28;20054;-81
2024/02/04 11:33:20;;;;;;;5.35;4.28;;;10.80;99.90;;;;;;4928011;28;20038;-81
2024/02/04 11:35:46;;;;;;;6.18;4.65;;;10.80;99.90;;;;;;4957877;28;20034;-81
2024/02/04 11:38:13;;;;;;;7.25;5.20;;;10.90;99.90;;;;;;4988491;28;20391;-81
2024/02/04 11:40:39;;;;;;;7.40;4.75;;;10.70;99.90;;;;;;4946277;28;20047;-81
2024/02/04 11:43:12;;;;;;;7.50;4.82;;;10.80;99.90;;;;;;4954538;28;20042;-81
2024/02/04 11:45:39;;;;;;;6.13;4.50;;;10.80;99.90;;;;;;4972972;28;20042;-82
2024/02/04 11:48:12;;;;;;;5.65;3.80;;;10.70;99.90;;;;;;4990997;28;20070;-81
2024/02/04 11:50:57;;;;;;;2.67;1.17;;;10.70;99.90;;;;;;4946880;28;20035;-82
2024/02/04 11:53:23;;;;;;;3.92;2.63;;;10.70;99.90;;;;;;4957360;28;20038;-81
2024/02/04 11:55:48;;;;;;;6.13;3.42;;;10.70;99.90;;;;;;4972397;28;20401;-81
2024/02/04 11:58:14;;;;;;;4.85;2.50;;;10.70;99.90;;;;;;4954206;28;20026;-82
2024/02/04 12:00:43;;;;;;;6.90;3.90;;;10.70;99.90;;;;;;4971612;28;20267;-82
2024/02/04 12:03:08;;;;;;;6.00;4.47;;;10.70;99.90;;;;;;4973297;28;20041;-81
2024/02/04 12:05:35;;;;;;;9.40;3.30;;;10.70;99.90;;;;;;4988264;28;20030;-82
2024/02/04 12:08:05;;;;;;;5.53;4.22;;;10.70;99.90;;;;;;4972164;28;20027;-81
2024/02/04 12:10:31;;;;;;;8.00;5.00;;;10.70;99.90;;;;;;4987644;28;20050;-82
2024/02/04 12:13:00;;;;;;;2.75;1.80;;;10.70;99.90;;;;;;4970854;28;20045;-82
2024/02/04 12:15:26;;;;;;;5.35;3.90;;;10.60;99.90;;;;;;4970115;28;20525;-82
2024/02/04 12:17:52;;;;;;;4.40;3.25;;;10.70;99.90;;;;;;4956188;28;20043;-82
2024/02/04 12:20:17;;;;;;;11.40;7.00;;;10.60;99.90;;;;;;4955774;28;20034;-81
2024/02/04 12:22:45;;;;;;;8.18;5.68;;;10.70;99.90;;;;;;4989906;28;20035;-81
2024/02/04 12:25:11;;;;;;;7.93;5.35;;;10.70;99.90;;;;;;4956279;28;20214;-81
2024/02/04 12:27:38;;;;;;;8.52;5.40;;;10.60;99.90;;;;;;4640427;28;10000332;-81
2024/02/04 12:30:05;;;;;;;9.48;6.55;;;10.60;99.90;;;;;;4968661;28;20504;-81
2024/02/04 12:32:31;;;;;;;7.93;5.88;;;10.60;99.90;;;;;;4982884;28;20646;-80
2024/02/04 12:34:56;;;;;;;9.00;6.05;;;10.60;99.90;;;;;;4953195;28;20041;-81
2024/02/04 12:37:22;;;;;;;9.45;6.85;;;10.70;99.90;;;;;;4969818;28;20453;-81
2024/02/04 12:39:47;;;;;;;8.40;5.13;;;10.60;99.90;;;;;;4955730;28;20042;-81
2024/02/04 12:42:18;;;;;;;10.20;7.78;;;10.60;99.90;;;;;;4972810;28;20034;-81
2024/02/04 12:44:44;;;;;;;14.73;9.35;;;10.60;99.90;;;;;;4973333;28;20080;-80
2024/02/04 12:47:10;;;;;;;12.32;7.65;;;10.60;99.90;;;;;;4972251;28;20038;-81